リーブルヴィル の空港の天気 - METARとTAF

リーブルヴィル国際空港 ( FOOL / LBV ) - ガボン リーブルヴィル
飛行場実況気象(Metar)
観測時間10/15 18:30 WAT (10/15 17:30 UTC)
風向・風速西南西 4m/s
視程10km以上
天気現象
少しの雲 雲底高度 400m
少しの雲 雲底高度 610m
気温27℃
湿度84%
気圧1010hPa
METARFOOL 151730Z 24008KT 9999 FEW013 FEW020CB 27/24 Q1010 NOSIG
過去の天気等 Google飛行場航空写真 Wunderground天気予報

過去48時間のMETAR

飛行場予報(TAF)
発表時間: 10/15 18:00 WAT (10/15 17:00 UTC)
予報対象時間: 15日19時 WAT ~ 17日1時 WAT
風向・風速西南西 4m/s
視程10km以上
全天の4割程度の雲 雲底高度 370m
少しの積乱雲 雲底高度 610m
全天の8割程度の雲 雲底高度 1010m
15日19時 WAT ~ 15日23時 WAT に一時的に
天気現象
TAF FOOL 151700Z 1518/1624 25008KT 9999 SCT012 FEW020CB BKN033
TEMPO 1518/1522 TS